sensor_id;sensor_type;location;lat;lon;timestamp;pressure;altitude;pressure_sealevel;temperature;humidity
58243;BME280;50118;53.232;8.252;2023-05-03T00:00:13;102772.53;;;5.26;100.00
58243;BME280;50118;53.232;8.252;2023-05-03T00:02:40;102767.34;;;5.22;100.00
58243;BME280;50118;53.232;8.252;2023-05-03T00:05:09;102762.06;;;5.22;100.00
58243;BME280;50118;53.232;8.252;2023-05-03T00:07:41;102766.28;;;5.28;100.00
58243;BME280;50118;53.232;8.252;2023-05-03T00:10:08;102759.97;;;5.31;100.00
58243;BME280;50118;53.232;8.252;2023-05-03T00:12:36;102766.06;;;5.33;100.00
58243;BME280;50118;53.232;8.252;2023-05-03T00:15:02;102764.25;;;5.35;100.00
58243;BME280;50118;53.232;8.252;2023-05-03T00:17:28;102762.56;;;5.32;100.00
58243;BME280;50118;53.232;8.252;2023-05-03T00:19:53;102762.56;;;5.32;100.00
58243;BME280;50118;53.232;8.252;2023-05-03T00:22:20;102758.00;;;5.36;100.00
58243;BME280;50118;53.232;8.252;2023-05-03T00:24:46;102771.34;;;5.33;100.00
58243;BME280;50118;53.232;8.252;2023-05-03T00:27:13;102765.03;;;5.37;100.00
58243;BME280;50118;53.232;8.252;2023-05-03T00:29:39;102767.00;;;5.32;100.00
58243;BME280;50118;53.232;8.252;2023-05-03T00:32:04;102766.06;;;5.33;100.00
58243;BME280;50118;53.232;8.252;2023-05-03T00:34:30;102767.13;;;5.29;100.00
58243;BME280;50118;53.232;8.252;2023-05-03T00:36:55;102768.03;;;5.28;100.00
58243;BME280;50118;53.232;8.252;2023-05-03T00:39:20;102774.13;;;5.30;100.00
58243;BME280;50118;53.232;8.252;2023-05-03T00:41:46;102766.31;;;5.27;100.00
58243;BME280;50118;53.232;8.252;2023-05-03T00:44:11;102764.41;;;5.30;100.00
58243;BME280;50118;53.232;8.252;2023-05-03T00:46:37;102774.25;;;5.27;100.00
58243;BME280;50118;53.232;8.252;2023-05-03T00:49:02;102767.22;;;5.26;100.00
58243;BME280;50118;53.232;8.252;2023-05-03T00:51:28;102771.03;;;5.18;100.00
58243;BME280;50118;53.232;8.252;2023-05-03T00:53:53;102769.19;;;5.20;100.00
58243;BME280;50118;53.232;8.252;2023-05-03T00:56:19;102773.63;;;5.20;100.00
58243;BME280;50118;53.232;8.252;2023-05-03T00:58:54;102772.63;;;5.22;100.00
58243;BME280;50118;53.232;8.252;2023-05-03T01:01:19;102771.03;;;5.18;100.00
58243;BME280;50118;53.232;8.252;2023-05-03T01:03:46;102763.19;;;5.17;100.00
58243;BME280;50118;53.232;8.252;2023-05-03T01:09:02;102770.31;;;5.15;100.00
58243;BME280;50118;53.232;8.252;2023-05-03T01:17:24;102771.03;;;5.18;100.00
58243;BME280;50118;53.232;8.252;2023-05-03T01:19:55;102771.72;;;5.23;100.00
58243;BME280;50118;53.232;8.252;2023-05-03T01:25:07;102783.41;;;5.18;100.00
58243;BME280;50118;53.232;8.252;2023-05-03T01:27:33;102776.50;;;5.14;100.00
58243;BME280;50118;53.232;8.252;2023-05-03T01:29:59;102779.75;;;5.20;100.00
58243;BME280;50118;53.232;8.252;2023-05-03T01:32:31;102786.91;;;5.18;100.00
58243;BME280;50118;53.232;8.252;2023-05-03T01:35:06;102792.28;;;5.15;100.00
58243;BME280;50118;53.232;8.252;2023-05-03T01:37:34;102789.53;;;5.18;100.00
58243;BME280;50118;53.232;8.252;2023-05-03T01:40:02;102781.72;;;5.15;100.00
58243;BME280;50118;53.232;8.252;2023-05-03T01:42:35;102788.06;;;5.11;100.00
58243;BME280;50118;53.232;8.252;2023-05-03T01:45:04;102787.13;;;5.12;100.00
58243;BME280;50118;53.232;8.252;2023-05-03T01:47:30;102799.44;;;5.13;100.00
58243;BME280;50118;53.232;8.252;2023-05-03T01:49:55;102793.03;;;5.19;100.00
58243;BME280;50118;53.232;8.252;2023-05-03T01:52:23;102791.44;;;5.15;100.00
58243;BME280;50118;53.232;8.252;2023-05-03T01:54:48;102792.28;;;5.15;100.00
58243;BME280;50118;53.232;8.252;2023-05-03T01:57:13;102787.69;;;5.20;100.00
58243;BME280;50118;53.232;8.252;2023-05-03T01:59:39;102787.75;;;5.19;100.00
58243;BME280;50118;53.232;8.252;2023-05-03T02:02:04;102791.34;;;5.18;100.00
58243;BME280;50118;53.232;8.252;2023-05-03T02:04:29;102789.66;;;5.15;100.00
58243;BME280;50118;53.232;8.252;2023-05-03T02:06:55;102791.19;;;5.21;100.00
58243;BME280;50118;53.232;8.252;2023-05-03T02:09:21;102793.09;;;5.17;100.00
58243;BME280;50118;53.232;8.252;2023-05-03T02:11:47;102795.63;;;5.20;100.00
58243;BME280;50118;53.232;8.252;2023-05-03T02:14:12;102798.25;;;5.20;100.00
58243;BME280;50118;53.232;8.252;2023-05-03T02:16:38;102801.69;;;5.22;100.00
58243;BME280;50118;53.232;8.252;2023-05-03T02:19:04;102803.53;;;5.20;100.00
58243;BME280;50118;53.232;8.252;2023-05-03T02:21:29;102801.84;;;5.19;100.00
58243;BME280;50118;53.232;8.252;2023-05-03T02:23:55;102801.75;;;5.21;100.00
58243;BME280;50118;53.232;8.252;2023-05-03T02:26:21;102816.69;;;5.22;100.00
58243;BME280;50118;53.232;8.252;2023-05-03T02:28:46;102809.63;;;5.22;100.00
58243;BME280;50118;53.232;8.252;2023-05-03T02:31:12;102814.00;;;5.23;100.00
58243;BME280;50118;53.232;8.252;2023-05-03T02:33:40;102807.13;;;5.19;100.00
58243;BME280;50118;53.232;8.252;2023-05-03T02:36:06;102808.03;;;5.18;100.00
58243;BME280;50118;53.232;8.252;2023-05-03T02:38:31;102810.69;;;5.18;100.00
58243;BME280;50118;53.232;8.252;2023-05-03T02:40:57;102802.19;;;5.10;100.00
58243;BME280;50118;53.232;8.252;2023-05-03T02:43:24;102804.72;;;5.13;100.00
58243;BME280;50118;53.232;8.252;2023-05-03T02:45:50;102792.66;;;5.06;100.00
58243;BME280;50118;53.232;8.252;2023-05-03T02:48:15;102792.03;;;4.99;100.00
58243;BME280;50118;53.232;8.252;2023-05-03T02:50:41;102792.31;;;4.92;100.00
58243;BME280;50118;53.232;8.252;2023-05-03T02:53:06;102797.91;;;4.84;100.00
58243;BME280;50118;53.232;8.252;2023-05-03T02:55:32;102787.72;;;4.73;100.00
58243;BME280;50118;53.232;8.252;2023-05-03T02:57:57;102789.13;;;4.60;100.00
58243;BME280;50118;53.232;8.252;2023-05-03T03:00:23;102788.69;;;4.47;100.00
58243;BME280;50118;53.232;8.252;2023-05-03T03:02:48;102789.94;;;4.37;100.00
58243;BME280;50118;53.232;8.252;2023-05-03T03:05:14;102796.47;;;4.26;100.00
58243;BME280;50118;53.232;8.252;2023-05-03T03:07:39;102792.47;;;4.15;100.00
58243;BME280;50118;53.232;8.252;2023-05-03T03:10:06;102791.06;;;4.04;100.00
58243;BME280;50118;53.232;8.252;2023-05-03T03:12:34;102786.31;;;3.89;100.00
58243;BME280;50118;53.232;8.252;2023-05-03T03:14:59;102783.25;;;3.74;100.00
58243;BME280;50118;53.232;8.252;2023-05-03T03:17:25;102792.34;;;3.66;100.00
58243;BME280;50118;53.232;8.252;2023-05-03T03:19:51;102790.88;;;3.57;100.00
58243;BME280;50118;53.232;8.252;2023-05-03T03:22:16;102791.16;;;3.48;100.00
58243;BME280;50118;53.232;8.252;2023-05-03T03:24:41;102786.94;;;3.42;100.00
58243;BME280;50118;53.232;8.252;2023-05-03T03:27:07;102788.22;;;3.30;100.00
58243;BME280;50118;53.232;8.252;2023-05-03T03:29:33;102781.38;;;3.23;100.00
58243;BME280;50118;53.232;8.252;2023-05-03T03:31:59;102777.19;;;3.17;100.00
58243;BME280;50118;53.232;8.252;2023-05-03T03:34:24;102781.47;;;3.20;100.00
58243;BME280;50118;53.232;8.252;2023-05-03T03:36:50;102773.53;;;3.22;100.00
58243;BME280;50118;53.232;8.252;2023-05-03T03:39:15;102771.78;;;3.22;100.00
58243;BME280;50118;53.232;8.252;2023-05-03T03:41:41;102773.41;;;3.26;100.00
58243;BME280;50118;53.232;8.252;2023-05-03T03:44:06;102780.34;;;3.29;100.00
58243;BME280;50118;53.232;8.252;2023-05-03T03:46:32;102781.03;;;3.35;100.00
58243;BME280;50118;53.232;8.252;2023-05-03T03:48:58;102780.81;;;3.42;100.00
58243;BME280;50118;53.232;8.252;2023-05-03T03:51:23;102782.47;;;3.46;100.00
58243;BME280;50118;53.232;8.252;2023-05-03T03:53:49;102785.91;;;3.48;100.00
58243;BME280;50118;53.232;8.252;2023-05-03T03:56:14;102787.59;;;3.49;100.00
58243;BME280;50118;53.232;8.252;2023-05-03T03:58:39;102779.50;;;3.55;100.00
58243;BME280;50118;53.232;8.252;2023-05-03T04:01:05;102774.75;;;3.66;100.00
58243;BME280;50118;53.232;8.252;2023-05-03T04:03:30;102774.63;;;3.69;100.00
58243;BME280;50118;53.232;8.252;2023-05-03T04:05:56;102770.03;;;3.76;100.00
58243;BME280;50118;53.232;8.252;2023-05-03T04:08:21;102761.97;;;3.81;100.00
58243;BME280;50118;53.232;8.252;2023-05-03T04:10:47;102770.38;;;3.92;100.00
58243;BME280;50118;53.232;8.252;2023-05-03T04:13:12;102765.03;;;3.95;100.00
58243;BME280;50118;53.232;8.252;2023-05-03T04:15:38;102780.50;;;4.04;100.00
58243;BME280;50118;53.232;8.252;2023-05-03T04:18:04;102782.25;;;4.05;100.00
58243;BME280;50118;53.232;8.252;2023-05-03T04:20:30;102776.84;;;4.08;100.00
58243;BME280;50118;53.232;8.252;2023-05-03T04:22:57;102778.47;;;4.13;100.00
58243;BME280;50118;53.232;8.252;2023-05-03T04:25:22;102781.72;;;4.21;100.00
58243;BME280;50118;53.232;8.252;2023-05-03T04:27:48;102776.94;;;4.30;100.00
58243;BME280;50118;53.232;8.252;2023-05-03T04:30:13;102778.44;;;4.39;100.00
58243;BME280;50118;53.232;8.252;2023-05-03T04:32:40;102781.91;;;4.40;100.00
58243;BME280;50118;53.232;8.252;2023-05-03T04:35:07;102777.28;;;4.46;100.00
58243;BME280;50118;53.232;8.252;2023-05-03T04:37:34;102778.78;;;4.54;100.00
58243;BME280;50118;53.232;8.252;2023-05-03T04:39:59;102775.09;;;4.58;100.00
58243;BME280;50118;53.232;8.252;2023-05-03T04:42:25;102783.47;;;4.69;100.00
58243;BME280;50118;53.232;8.252;2023-05-03T04:44:51;102777.78;;;4.80;100.00
58243;BME280;50118;53.232;8.252;2023-05-03T04:47:16;102781.31;;;4.80;100.00
58243;BME280;50118;53.232;8.252;2023-05-03T04:49:42;102781.06;;;4.86;100.00
58243;BME280;50118;53.232;8.252;2023-05-03T04:52:08;102792.16;;;4.96;100.00
58243;BME280;50118;53.232;8.252;2023-05-03T04:54:34;102804.81;;;5.10;100.00
58243;BME280;50118;53.232;8.252;2023-05-03T04:57:00;102802.88;;;5.15;100.00
58243;BME280;50118;53.232;8.252;2023-05-03T04:59:25;102797.25;;;5.24;100.00
58243;BME280;50118;53.232;8.252;2023-05-03T05:01:51;102811.13;;;5.30;100.00
58243;BME280;50118;53.232;8.252;2023-05-03T05:04:16;102804.50;;;5.41;100.00
58243;BME280;50118;53.232;8.252;2023-05-03T05:06:42;102805.03;;;5.50;100.00
58243;BME280;50118;53.232;8.252;2023-05-03T05:09:20;102817.97;;;5.57;100.00
58243;BME280;50118;53.232;8.252;2023-05-03T05:11:46;102825.38;;;5.70;100.00
58243;BME280;50118;53.232;8.252;2023-05-03T05:14:11;102822.56;;;5.74;100.00
58243;BME280;50118;53.232;8.252;2023-05-03T05:16:37;102832.56;;;5.88;100.00
58243;BME280;50118;53.232;8.252;2023-05-03T05:19:02;102824.44;;;5.93;100.00
58243;BME280;50118;53.232;8.252;2023-05-03T05:21:28;102826.59;;;6.05;100.00
58243;BME280;50118;53.232;8.252;2023-05-03T05:23:53;102824.50;;;6.13;100.00
58243;BME280;50118;53.232;8.252;2023-05-03T05:26:19;102828.53;;;6.22;100.00
58243;BME280;50118;53.232;8.252;2023-05-03T05:28:44;102832.38;;;6.35;100.00
58243;BME280;50118;53.232;8.252;2023-05-03T05:31:10;102836.22;;;6.49;100.00
58243;BME280;50118;53.232;8.252;2023-05-03T05:33:35;102841.03;;;6.60;100.00
58243;BME280;50118;53.232;8.252;2023-05-03T05:36:01;102838.31;;;6.61;99.98
58243;BME280;50118;53.232;8.252;2023-05-03T05:38:26;102837.25;;;6.65;98.24
58243;BME280;50118;53.232;8.252;2023-05-03T05:40:52;102839.38;;;6.78;96.65
58243;BME280;50118;53.232;8.252;2023-05-03T05:43:17;102850.44;;;6.86;96.88
58243;BME280;50118;53.232;8.252;2023-05-03T05:45:43;102849.41;;;6.90;98.21
58243;BME280;50118;53.232;8.252;2023-05-03T05:48:08;102855.13;;;7.00;94.91
58243;BME280;50118;53.232;8.252;2023-05-03T05:50:34;102858.78;;;6.97;91.17
58243;BME280;50118;53.232;8.252;2023-05-03T05:52:59;102864.59;;;7.05;92.53
58243;BME280;50118;53.232;8.252;2023-05-03T05:55:26;102860.34;;;7.01;91.11
58243;BME280;50118;53.232;8.252;2023-05-03T05:57:51;102864.53;;;7.26;91.78
58243;BME280;50118;53.232;8.252;2023-05-03T06:00:17;102859.50;;;7.39;90.64
58243;BME280;50118;53.232;8.252;2023-05-03T06:02:43;102855.06;;;7.39;88.24
58243;BME280;50118;53.232;8.252;2023-05-03T06:05:09;102858.13;;;7.30;87.05
58243;BME280;50118;53.232;8.252;2023-05-03T06:07:35;102864.25;;;7.32;85.58
58243;BME280;50118;53.232;8.252;2023-05-03T06:10:01;102862.50;;;7.50;84.52
58243;BME280;50118;53.232;8.252;2023-05-03T06:12:27;102861.53;;;7.53;84.03
58243;BME280;50118;53.232;8.252;2023-05-03T06:14:52;102859.59;;;7.74;84.61
58243;BME280;50118;53.232;8.252;2023-05-03T06:17:17;102861.09;;;7.79;82.17
58243;BME280;50118;53.232;8.252;2023-05-03T06:19:43;102867.31;;;7.97;80.17
58243;BME280;50118;53.232;8.252;2023-05-03T06:22:08;102867.78;;;7.69;81.32
58243;BME280;50118;53.232;8.252;2023-05-03T06:24:34;102870.88;;;7.60;80.41
58243;BME280;50118;53.232;8.252;2023-05-03T06:26:59;102867.75;;;7.52;81.68
58243;BME280;50118;53.232;8.252;2023-05-03T06:29:25;102877.25;;;7.56;84.45
58243;BME280;50118;53.232;8.252;2023-05-03T06:31:51;102870.25;;;7.55;85.66
58243;BME280;50118;53.232;8.252;2023-05-03T06:34:19;102877.69;;;7.65;86.18
58243;BME280;50118;53.232;8.252;2023-05-03T06:36:46;102884.97;;;7.79;85.69
58243;BME280;50118;53.232;8.252;2023-05-03T06:39:11;102884.41;;;7.92;82.04
58243;BME280;50118;53.232;8.252;2023-05-03T06:41:37;102881.63;;;7.93;80.90
58243;BME280;50118;53.232;8.252;2023-05-03T06:44:02;102890.34;;;8.14;80.23
58243;BME280;50118;53.232;8.252;2023-05-03T06:46:33;102885.47;;;7.88;83.25
58243;BME280;50118;53.232;8.252;2023-05-03T06:48:59;102881.25;;;7.83;82.50
58243;BME280;50118;53.232;8.252;2023-05-03T06:51:26;102881.06;;;8.23;82.59
58243;BME280;50118;53.232;8.252;2023-05-03T06:53:53;102870.59;;;8.37;80.00
58243;BME280;50118;53.232;8.252;2023-05-03T06:56:20;102872.69;;;8.13;80.43
58243;BME280;50118;53.232;8.252;2023-05-03T06:58:46;102883.09;;;8.18;82.90
58243;BME280;50118;53.232;8.252;2023-05-03T07:01:12;102880.50;;;7.99;79.70
58243;BME280;50118;53.232;8.252;2023-05-03T07:03:38;102882.06;;;8.03;78.57
58243;BME280;50118;53.232;8.252;2023-05-03T07:06:03;102873.31;;;8.01;80.15
58243;BME280;50118;53.232;8.252;2023-05-03T07:08:29;102876.88;;;8.00;81.65
58243;BME280;50118;53.232;8.252;2023-05-03T07:10:59;102874.84;;;7.88;81.61
58243;BME280;50118;53.232;8.252;2023-05-03T07:13:24;102870.09;;;7.94;80.47
58243;BME280;50118;53.232;8.252;2023-05-03T07:15:50;102872.47;;;7.81;81.66
58243;BME280;50118;53.232;8.252;2023-05-03T07:18:15;102869.53;;;7.88;80.71
58243;BME280;50118;53.232;8.252;2023-05-03T07:20:41;102871.44;;;8.03;85.63
58243;BME280;50118;53.232;8.252;2023-05-03T07:23:06;102884.22;;;7.95;79.60
58243;BME280;50118;53.232;8.252;2023-05-03T07:25:32;102876.88;;;8.00;79.38
58243;BME280;50118;53.232;8.252;2023-05-03T07:27:58;102880.50;;;8.16;79.99
58243;BME280;50118;53.232;8.252;2023-05-03T07:30:23;102880.13;;;8.24;78.43
58243;BME280;50118;53.232;8.252;2023-05-03T07:32:49;102876.78;;;8.38;76.81
58243;BME280;50118;53.232;8.252;2023-05-03T07:35:15;102876.06;;;8.34;79.53
58243;BME280;50118;53.232;8.252;2023-05-03T07:37:41;102877.91;;;8.51;77.85
58243;BME280;50118;53.232;8.252;2023-05-03T07:40:07;102894.88;;;8.30;77.96
58243;BME280;50118;53.232;8.252;2023-05-03T07:42:34;102882.66;;;8.45;80.54
58243;BME280;50118;53.232;8.252;2023-05-03T07:45:00;102893.16;;;8.29;77.32
58243;BME280;50118;53.232;8.252;2023-05-03T07:47:25;102884.81;;;8.36;76.18
58243;BME280;50118;53.232;8.252;2023-05-03T07:49:52;102888.34;;;8.54;74.11
58243;BME280;50118;53.232;8.252;2023-05-03T07:52:17;102891.84;;;8.72;74.71
58243;BME280;50118;53.232;8.252;2023-05-03T07:54:43;102896.19;;;8.91;70.54
58243;BME280;50118;53.232;8.252;2023-05-03T07:57:13;102888.97;;;8.77;70.59
58243;BME280;50118;53.232;8.252;2023-05-03T07:59:39;102895.06;;;8.44;73.50
58243;BME280;50118;53.232;8.252;2023-05-03T08:02:04;102890.06;;;9.06;67.52
58243;BME280;50118;53.232;8.252;2023-05-03T08:04:30;102890.75;;;9.10;67.52
58243;BME280;50118;53.232;8.252;2023-05-03T08:06:55;102896.97;;;9.26;66.71
58243;BME280;50118;53.232;8.252;2023-05-03T08:09:24;102885.34;;;8.78;66.67
58243;BME280;50118;53.232;8.252;2023-05-03T08:11:49;102886.47;;;8.56;66.73
58243;BME280;50118;53.232;8.252;2023-05-03T08:14:15;102879.47;;;8.89;67.55
58243;BME280;50118;53.232;8.252;2023-05-03T08:16:41;102888.56;;;9.01;65.49
58243;BME280;50118;53.232;8.252;2023-05-03T08:19:06;102886.44;;;9.07;66.55
58243;BME280;50118;53.232;8.252;2023-05-03T08:21:32;102880.56;;;9.50;62.94
58243;BME280;50118;53.232;8.252;2023-05-03T08:23:59;102879.94;;;9.77;62.95
58243;BME280;50118;53.232;8.252;2023-05-03T08:26:25;102888.03;;;9.91;60.32
58243;BME280;50118;53.232;8.252;2023-05-03T08:28:52;102893.31;;;10.07;59.27
58243;BME280;50118;53.232;8.252;2023-05-03T08:31:18;102887.34;;;9.40;63.10
58243;BME280;50118;53.232;8.252;2023-05-03T08:33:44;102890.44;;;9.16;64.27
58243;BME280;50118;53.232;8.252;2023-05-03T08:36:09;102889.84;;;8.93;67.48
58243;BME280;50118;53.232;8.252;2023-05-03T08:38:35;102892.63;;;9.08;64.07
58243;BME280;50118;53.232;8.252;2023-05-03T08:41:20;102900.53;;;9.25;65.64
58243;BME280;50118;53.232;8.252;2023-05-03T08:43:51;102897.59;;;9.14;67.38
58243;BME280;50118;53.232;8.252;2023-05-03T08:46:16;102895.13;;;9.11;63.38
58243;BME280;50118;53.232;8.252;2023-05-03T08:48:45;102897.56;;;9.31;62.67
58243;BME280;50118;53.232;8.252;2023-05-03T08:51:13;102891.81;;;9.71;64.25
58243;BME280;50118;53.232;8.252;2023-05-03T08:53:38;102895.41;;;9.54;62.48
58243;BME280;50118;53.232;8.252;2023-05-03T08:56:08;102903.81;;;9.14;63.38
58243;BME280;50118;53.232;8.252;2023-05-03T08:58:35;102902.66;;;8.85;63.64
58243;BME280;50118;53.232;8.252;2023-05-03T09:01:05;102901.25;;;9.45;64.55
58243;BME280;50118;53.232;8.252;2023-05-03T09:03:31;102899.00;;;9.53;62.12
58243;BME280;50118;53.232;8.252;2023-05-03T09:05:56;102895.91;;;9.45;64.22
58243;BME280;50118;53.232;8.252;2023-05-03T09:08:26;102900.16;;;9.00;63.49
58243;BME280;50118;53.232;8.252;2023-05-03T09:10:52;102900.78;;;9.05;62.89
58243;BME280;50118;53.232;8.252;2023-05-03T09:13:18;102899.50;;;9.28;62.70
58243;BME280;50118;53.232;8.252;2023-05-03T09:15:54;102893.97;;;10.10;59.44
58243;BME280;50118;53.232;8.252;2023-05-03T09:18:20;102896.06;;;9.26;60.36
58243;BME280;50118;53.232;8.252;2023-05-03T09:20:47;102893.00;;;9.33;65.28
58243;BME280;50118;53.232;8.252;2023-05-03T09:23:38;102891.97;;;9.68;63.80
58243;BME280;50118;53.232;8.252;2023-05-03T09:26:02;102897.56;;;10.09;61.31
58243;BME280;50118;53.232;8.252;2023-05-03T09:28:28;102891.66;;;9.74;60.99
58243;BME280;50118;53.232;8.252;2023-05-03T09:31:05;102891.19;;;9.50;63.04
58243;BME280;50118;53.232;8.252;2023-05-03T09:33:31;102892.88;;;9.99;58.83
58243;BME280;50118;53.232;8.252;2023-05-03T09:35:59;102894.56;;;10.16;58.70
58243;BME280;50118;53.232;8.252;2023-05-03T09:38:29;102893.38;;;10.52;56.86
58243;BME280;50118;53.232;8.252;2023-05-03T09:40:55;102886.69;;;9.52;63.20
58243;BME280;50118;53.232;8.252;2023-05-03T09:43:20;102892.81;;;10.00;60.83
58243;BME280;50118;53.232;8.252;2023-05-03T09:45:46;102892.41;;;9.76;59.31
58243;BME280;50118;53.232;8.252;2023-05-03T09:48:12;102886.53;;;10.62;57.15
58243;BME280;50118;53.232;8.252;2023-05-03T09:50:39;102878.91;;;10.56;55.94
58243;BME280;50118;53.232;8.252;2023-05-03T09:53:06;102884.63;;;11.36;56.89
58243;BME280;50118;53.232;8.252;2023-05-03T09:55:39;102881.84;;;11.79;52.14
58243;BME280;50118;53.232;8.252;2023-05-03T09:58:05;102876.28;;;13.01;47.87
58243;BME280;50118;53.232;8.252;2023-05-03T10:00:38;102870.88;;;14.23;44.67
58243;BME280;50118;53.232;8.252;2023-05-03T10:03:07;102870.88;;;15.81;43.25
58243;BME280;50118;53.232;8.252;2023-05-03T10:05:41;102870.31;;;16.31;39.74
58243;BME280;50118;53.232;8.252;2023-05-03T10:08:08;102871.84;;;14.69;42.29
58243;BME280;50118;53.232;8.252;2023-05-03T10:10:36;102874.31;;;15.06;43.03
58243;BME280;50118;53.232;8.252;2023-05-03T10:13:04;102882.31;;;13.29;44.48
58243;BME280;50118;53.232;8.252;2023-05-03T10:15:37;102873.31;;;14.15;44.43
58243;BME280;50118;53.232;8.252;2023-05-03T10:18:06;102875.22;;;13.77;43.70
58243;BME280;50118;53.232;8.252;2023-05-03T10:20:52;102874.97;;;13.06;46.64
58243;BME280;50118;53.232;8.252;2023-05-03T10:23:21;102865.78;;;10.96;52.83
58243;BME280;50118;53.232;8.252;2023-05-03T10:28:35;102863.03;;;10.24;55.20
58243;BME280;50118;53.232;8.252;2023-05-03T10:31:01;102860.34;;;10.69;55.88
58243;BME280;50118;53.232;8.252;2023-05-03T10:33:31;102859.13;;;10.89;54.56
58243;BME280;50118;53.232;8.252;2023-05-03T10:36:03;102861.38;;;12.32;50.72
58243;BME280;50118;53.232;8.252;2023-05-03T10:38:29;102868.09;;;13.28;46.04
58243;BME280;50118;53.232;8.252;2023-05-03T10:40:57;102867.59;;;14.66;42.30
58243;BME280;50118;53.232;8.252;2023-05-03T10:45:59;102859.44;;;16.42;39.75
58243;BME280;50118;53.232;8.252;2023-05-03T10:48:27;102871.13;;;16.53;40.42
58243;BME280;50118;53.232;8.252;2023-05-03T10:50:53;102870.25;;;12.97;46.48
58243;BME280;50118;53.232;8.252;2023-05-03T10:53:39;102864.44;;;12.01;51.05
58243;BME280;50118;53.232;8.252;2023-05-03T10:56:09;102862.94;;;11.82;51.21
58243;BME280;50118;53.232;8.252;2023-05-03T10:58:42;102864.16;;;13.58;45.73
58243;BME280;50118;53.232;8.252;2023-05-03T11:01:17;102871.34;;;14.17;44.49
58243;BME280;50118;53.232;8.252;2023-05-03T11:04:06;102871.19;;;14.07;44.78
58243;BME280;50118;53.232;8.252;2023-05-03T11:06:35;102865.50;;;15.81;41.01
58243;BME280;50118;53.232;8.252;2023-05-03T11:09:03;102855.31;;;14.39;43.65
58243;BME280;50118;53.232;8.252;2023-05-03T11:11:30;102867.84;;;14.28;44.02
58243;BME280;50118;53.232;8.252;2023-05-03T11:13:56;102868.03;;;12.91;49.77
58243;BME280;50118;53.232;8.252;2023-05-03T11:16:21;102863.63;;;13.03;47.14
58243;BME280;50118;53.232;8.252;2023-05-03T11:18:47;102868.34;;;12.61;48.13
58243;BME280;50118;53.232;8.252;2023-05-03T11:21:17;102857.00;;;13.94;45.41
58243;BME280;50118;53.232;8.252;2023-05-03T11:23:44;102856.66;;;14.34;45.04
58243;BME280;50118;53.232;8.252;2023-05-03T11:26:10;102862.19;;;14.08;44.34
58243;BME280;50118;53.232;8.252;2023-05-03T11:28:39;102860.97;;;15.27;42.43
58243;BME280;50118;53.232;8.252;2023-05-03T11:31:07;102851.53;;;14.31;43.95
58243;BME280;50118;53.232;8.252;2023-05-03T11:33:37;102850.97;;;13.18;47.65
58243;BME280;50118;53.232;8.252;2023-05-03T11:36:12;102849.31;;;13.65;44.82
58243;BME280;50118;53.232;8.252;2023-05-03T11:38:39;102841.31;;;13.28;47.22
58243;BME280;50118;53.232;8.252;2023-05-03T11:41:12;102848.53;;;12.12;49.88
58243;BME280;50118;53.232;8.252;2023-05-03T11:43:46;102853.22;;;12.08;53.51
58243;BME280;50118;53.232;8.252;2023-05-03T11:46:15;102845.53;;;11.76;53.73
58243;BME280;50118;53.232;8.252;2023-05-03T11:48:45;102853.00;;;11.84;52.82
58243;BME280;50118;53.232;8.252;2023-05-03T11:51:10;102840.97;;;12.31;53.76
58243;BME280;50118;53.232;8.252;2023-05-03T11:53:40;102847.78;;;12.87;50.65
58243;BME280;50118;53.232;8.252;2023-05-03T11:56:08;102852.09;;;12.51;53.18
58243;BME280;50118;53.232;8.252;2023-05-03T11:58:48;102842.31;;;11.71;52.57
58243;BME280;50118;53.232;8.252;2023-05-03T12:01:14;102839.66;;;11.57;54.55
58243;BME280;50118;53.232;8.252;2023-05-03T12:03:40;102845.31;;;11.11;56.19
58243;BME280;50118;53.232;8.252;2023-05-03T12:06:06;102842.72;;;11.78;53.97
58243;BME280;50118;53.232;8.252;2023-05-03T12:08:32;102846.16;;;11.26;54.79
58243;BME280;50118;53.232;8.252;2023-05-03T12:11:00;102843.69;;;11.23;59.45
58243;BME280;50118;53.232;8.252;2023-05-03T12:13:36;102837.34;;;10.68;57.35
58243;BME280;50118;53.232;8.252;2023-05-03T12:16:06;102843.88;;;10.62;58.12
58243;BME280;50118;53.232;8.252;2023-05-03T12:21:10;102832.81;;;11.11;56.60
58243;BME280;50118;53.232;8.252;2023-05-03T12:23:36;102828.72;;;11.47;57.74
58243;BME280;50118;53.232;8.252;2023-05-03T12:26:02;102825.22;;;11.74;57.80
58243;BME280;50118;53.232;8.252;2023-05-03T12:28:27;102821.06;;;12.10;59.85
58243;BME280;50118;53.232;8.252;2023-05-03T12:30:53;102823.41;;;12.27;52.69
58243;BME280;50118;53.232;8.252;2023-05-03T12:33:19;102815.31;;;12.16;53.69
58243;BME280;50118;53.232;8.252;2023-05-03T12:35:45;102818.84;;;11.49;54.93
58243;BME280;50118;53.232;8.252;2023-05-03T12:38:10;102823.94;;;11.25;55.57
58243;BME280;50118;53.232;8.252;2023-05-03T12:40:36;102819.47;;;11.80;54.87
58243;BME280;50118;53.232;8.252;2023-05-03T12:43:03;102805.69;;;12.78;52.55
58243;BME280;50118;53.232;8.252;2023-05-03T12:45:29;102804.19;;;13.11;50.54
58243;BME280;50118;53.232;8.252;2023-05-03T12:47:56;102812.63;;;13.17;50.91
58243;BME280;50118;53.232;8.252;2023-05-03T12:50:22;102807.97;;;13.69;48.48
58243;BME280;50118;53.232;8.252;2023-05-03T12:52:47;102811.59;;;12.31;52.00
58243;BME280;50118;53.232;8.252;2023-05-03T12:55:13;102808.53;;;11.98;53.57
58243;BME280;50118;53.232;8.252;2023-05-03T12:57:39;102805.78;;;11.72;57.00
58243;BME280;50118;53.232;8.252;2023-05-03T13:00:07;102817.47;;;11.29;56.81
58243;BME280;50118;53.232;8.252;2023-05-03T13:02:33;102809.84;;;11.50;58.07
58243;BME280;50118;53.232;8.252;2023-05-03T13:04:59;102807.50;;;11.04;58.55
58243;BME280;50118;53.232;8.252;2023-05-03T13:07:25;102801.16;;;10.78;60.52
58243;BME280;50118;53.232;8.252;2023-05-03T13:09:54;102805.81;;;10.89;60.18